• Join FlightAware (Why Join?)
  • Login
  • US Flag 
09:04PM EDT


 

Airport Tracker/Info


-or-


 

Live Flight TrackerFlight Track Log ✈ N626JS ✈ 23-May-2013 ✈ KBED - KPDX

Flight Track Log - Related Links

Times and Time Zones

All times are in EDT time to prevent confusion due to time zone crossing. See the N626JS flight status page for this flight to view local times or setup timezone preferences in your user account.

Time Position Orientation Groundspeed Altitude Reporting Facility
EDT Latitude Longitude Course Direction KTS MPH feet Rate Location/Type
02:25PM 42.5220 -71.4190 310° West 4,800  Level FlightAware
02:27PM 42.6150 -71.4100 North 9,200 180 Climbing FlightAware
02:27PM 42.6510 -71.3420 54° Northeast 11,100 180 Climbing FlightAware
02:28PM 42.6930 -71.2650 53° Northeast 12,800 180 Climbing FlightAware
02:28PM 42.7190 -71.2500 23° Northeast 13,200 120 Climbing FlightAware
02:29PM 42.7700 -71.2570 354° North 13,900 120 Climbing FlightAware
02:29PM 42.7860 -71.2680 333° Northwest 14,200 120 Climbing FlightAware
02:29PM 42.8050 -71.2900 320° Northwest 14,800 120 Climbing FlightAware
02:30PM 42.8440 -71.3670 305° West 16,900 120 Climbing FlightAware
02:31PM 42.8670 -71.4620 288° West 18,700 120 Climbing FlightAware
02:31PM 42.8870 -71.5550 286° West 20,200 120 Climbing FlightAware
02:32PM 42.9100 -71.6480 289° West 21,900 120 Climbing FlightAware
02:33PM 42.9340 -71.7550 287° West 23,600 60 Climbing FlightAware
02:34PM 42.9700 -71.8440 299° West 25,100 60 Climbing FlightAware
02:34PM 43.0280 -71.9380 310° West 26,900 60 Climbing FlightAware
02:35PM 43.0750 -72.0100 312° West 28,300 60 Climbing FlightAware
02:36PM 43.1340 -72.1000 312° West 29,700 60 Climbing FlightAware
02:36PM 43.1940 -72.1890 313° West 30,100 60 Climbing FlightAware
02:37PM 43.2580 -72.2940 310° West 31,400  Climbing FlightAware
02:38PM 43.2890 -72.3700 299° West 32,300  Climbing FlightAware
02:38PM 43.3150 -72.5000 285° West 33,700  Climbing FlightAware
02:39PM 43.3360 -72.6170 284° West 35,200  Climbing FlightAware
02:40PM 43.3580 -72.7370 284° West 36,200  Climbing FlightAware
02:41PM 43.3770 -72.8500 283° West 37,200  Climbing FlightAware
02:41PM 43.3940 -72.9460 284° West 38,200  Climbing FlightAware
02:42PM 43.4170 -73.0680 285° West 38,500 -60 Climbing FlightAware
02:43PM 43.4470 -73.2390 284° West 39,100 -60 Climbing FlightAware
02:43PM 43.4600 -73.3140 283° West 39,400 -60 Climbing FlightAware
02:44PM 43.4840 -73.4510 284° West 39,700 -60 Climbing FlightAware
02:45PM 43.5080 -73.5900 283° West 40,100 -60 Climbing FlightAware
02:46PM 43.5350 -73.7470 283° West 40,000 -60 Descending FlightAware
02:47PM 43.5710 -73.9660 283° West 40,000 -60 Level FlightAware
02:48PM 43.5880 -74.0630 284° West 40,000 -60 Level FlightAware
02:48PM 43.6060 -74.1730 283° West 40,000 -60 Level FlightAware
02:49PM 43.6260 -74.2920 283° West 40,000 -60 Level FlightAware
02:50PM 43.6450 -74.4080 283° West 40,000 -60 Level FlightAware
02:51PM 43.6650 -74.5300 283° West 40,000 -60 Level FlightAware
02:51PM 43.6800 -74.6240 282° West 40,000 -60 Level FlightAware
02:52PM 43.7030 -74.7680 283° West 40,000 -60 Level FlightAware
02:53PM 43.7200 -74.8730 283° West 40,000 -60 Level FlightAware
02:53PM 43.7420 -75.0090 283° West 40,000 -60 Level FlightAware
02:54PM 43.7590 -75.1180 282° West 40,000 -60 Level FlightAware
02:55PM 43.7790 -75.2460 282° West 40,000 -60 Level FlightAware
02:56PM 43.7960 -75.3580 282° West 40,000 -60 Level FlightAware
02:56PM 43.8140 -75.4710 282° West 40,000 -60 Level FlightAware
02:57PM 43.8330 -75.5950 282° West 40,000 -60 Level FlightAware
02:58PM 43.8500 -75.7120 281° West 40,000 -60 Level FlightAware
02:58PM 43.8680 -75.8260 282° West 40,000 -60 Level FlightAware
02:59PM 43.8880 -75.9620 282° West 40,000 -60 Level FlightAware
03:00PM 43.9050 -76.0770 282° West 40,000 -60 Level FlightAware
03:00PM 43.9250 -76.2090 282° West 40,000 -60 Level FlightAware
03:01PM 43.9420 -76.3280 281° West 40,000 -60 Level FlightAware
03:02PM 43.9590 -76.4450 281° West 40,000 -60 Level FlightAware
03:03PM 43.9780 -76.5770 281° West 40,000 -60 Level FlightAware
03:03PM 43.9940 -76.6930 281° West 40,000 -60 Level FlightAware
03:04PM 44.0120 -76.8160 282° West 40,000 -60 Level FlightAware
03:05PM 44.0300 -76.9490 281° West 40,000 -60 Level FlightAware
03:05PM 44.0470 -77.0670 281° West 40,000 -60 Level FlightAware
03:06PM 44.0650 -77.2010 281° West 40,000 -60 Level FlightAware
03:07PM 44.0820 -77.3230 281° West 40,000 -60 Level FlightAware
03:07PM 44.1000 -77.4580 281° West 40,000 -60 Level FlightAware
03:08PM 44.1160 -77.5740 281° West 40,000 -60 Level FlightAware
03:09PM 44.1340 -77.7160 280° West 40,000 -60 Level FlightAware
03:10PM 44.1500 -77.8360 281° West 40,000 -60 Level FlightAware
03:10PM 44.1660 -77.9570 280° West 40,000 -60 Level FlightAware
03:11PM 44.1840 -78.0970 280° West 40,000 -60 Level FlightAware
03:12PM 44.2000 -78.2190 280° West 40,000 -60 Level FlightAware
03:12PM 44.2150 -78.3410 280° West 40,000 -60 Level FlightAware
03:13PM 44.2320 -78.4810 280° West 40,000 -60 Level FlightAware
03:14PM 44.2470 -78.5990 280° West 40,000 -60 Level FlightAware
03:14PM 44.2640 -78.7370 280° West 40,000 -60 Level FlightAware
03:15PM 44.2790 -78.8610 280° West 40,000 -60 Level FlightAware
03:16PM 44.2940 -78.9880 279° West 40,000 -60 Level FlightAware
03:17PM 44.3100 -79.1140 280° West 40,000 -60 Level FlightAware
03:17PM 44.3220 -79.2380 278° West 40,000 -60 Level FlightAware
03:18PM 44.3310 -79.3670 276° West 40,100 -60 Climbing FlightAware
03:19PM 44.3390 -79.4970 275° West 40,000 -60 Descending FlightAware
03:19PM 44.3470 -79.6330 275° West 40,000 -60 Level FlightAware
03:20PM 44.3550 -79.7540 275° West 40,000 -60 Level FlightAware
03:21PM 44.3620 -79.8720 275° West 40,000 -60 Level FlightAware
03:21PM 44.3700 -80.0140 275° West 40,000 -60 Level FlightAware
03:22PM 44.3770 -80.1360 275° West 40,000 -60 Level FlightAware
03:23PM 44.3840 -80.2730 274° West 40,000 -60 Level FlightAware
03:24PM 44.3910 -80.3940 275° West 40,000 -60 Level FlightAware
03:24PM 44.3980 -80.5290 274° West 40,000 -60 Level FlightAware
03:25PM 44.4040 -80.6490 274° West 40,000 -60 Level FlightAware
03:26PM 44.4110 -80.7730 275° West 40,000 -60 Level FlightAware
03:26PM 44.4180 -80.9090 274° West 40,000 -60 Level FlightAware
03:27PM 44.4230 -81.0270 273° West 40,000 -60 Level FlightAware
03:28PM 44.4290 -81.1550 274° West 40,000 -60 Level FlightAware
03:28PM 44.4360 -81.2910 274° West 40,000 -60 Level FlightAware
03:29PM 44.4410 -81.4060 274° West 40,000 -60 Level FlightAware
03:30PM 44.4460 -81.5240 273° West 40,000 -60 Level FlightAware
03:31PM 44.4530 -81.6750 274° West 40,000 -60 Level FlightAware
03:31PM 44.4590 -81.8160 273° West 40,000 -60 Level FlightAware
03:32PM 44.4640 -81.9380 273° West 40,000 -60 Level FlightAware
03:33PM 44.4690 -82.0610 273° West 40,000 -60 Level FlightAware
03:33PM 44.4740 -82.1870 273° West 40,000 -60 Level FlightAware
03:34PM 44.4790 -82.3220 273° West 40,000 -60 Level FlightAware
03:35PM 44.4840 -82.4500 273° West 40,000 -60 Level FlightAware
03:35PM 44.4890 -82.5900 273° West 40,000 -60 Level FlightAware
03:36PM 44.4930 -82.7000 273° West 40,000 -60 Level FlightAware
03:37PM 44.4980 -82.8510 273° West 40,000 -60 Level FlightAware
03:37PM 44.5010 -82.9420 273° West 40,000 -60 Level FlightAware
03:38PM 44.5050 -83.0890 272° West 40,000 -60 Level FlightAware
03:39PM 44.5100 -83.2340 273° West 40,000 -60 Level FlightAware
03:40PM 44.5130 -83.3440 272° West 40,000 -60 Level FlightAware
03:40PM 44.5170 -83.4890 272° West 40,000 -60 Level FlightAware
03:41PM 44.5210 -83.6380 272° West 40,000 -60 Level FlightAware
03:42PM 44.5270 -83.8530 272° West 40,000 -60 Level FlightAware
03:43PM 44.5300 -83.9620 272° West 40,000 -60 Level FlightAware
03:43PM 44.5330 -84.0930 272° West 40,000 -60 Level FlightAware
03:44PM 44.5350 -84.2150 271° West 40,000 -60 Level FlightAware
03:46PM 44.5410 -84.5010 272° West 40,000 -60 Level FlightAware
03:46PM 44.5440 -84.6330 272° West 40,000 -60 Level FlightAware
03:48PM 44.5490 -84.8960 272° West 40,000 -60 Level FlightAware
03:49PM 44.5520 -85.1430 271° West 40,000 -60 Level FlightAware
03:51PM 44.5560 -85.4570 271° West 40,000 -60 Level FlightAware
03:51PM 47.4790 -83.0770 29° Northeast 29,600 -60 Descending FlightAware
03:54PM 47.4790 -83.0770 29° Northeast 30,400 120 Climbing FlightAware
03:56PM 44.5630 -86.4410 220° Southwest 40,000 120 Climbing FlightAware
03:58PM 44.5640 -86.8220 270° West 40,000 -60 Level FlightAware
03:59PM 44.5640 -86.9780 270° West 40,000 -60 Level FlightAware
03:59PM 44.5630 -87.0980 269° West 40,000 -60 Level FlightAware
04:00PM 44.5630 -87.2570 270° West 40,000 -60 Level FlightAware
04:01PM 44.5620 -87.4170 270° West 40,000 -60 Level FlightAware
04:02PM 44.5620 -87.5170 270° West 40,000 -60 Level FlightAware
04:02PM 44.5610 -87.6510 269° West 40,000 -60 Level FlightAware
04:07PM 44.6100 -88.5900 275° West 40,000 -60 Level FlightAware
04:08PM 44.6270 -88.7140 281° West 40,000 -60 Level FlightAware
04:09PM 44.6420 -88.8280 281° West 40,000 -60 Level FlightAware
04:10PM 44.6630 -88.9830 281° West 40,000 -60 Level FlightAware
04:10PM 44.6790 -89.1000 281° West 40,000 -60 Level FlightAware
04:11PM 44.6960 -89.2340 280° West 40,000 -60 Level FlightAware
04:12PM 44.7130 -89.3590 281° West 40,000 -60 Level FlightAware
04:12PM 44.7290 -89.4900 280° West 40,000 -60 Level FlightAware
04:13PM 44.7440 -89.6040 281° West 40,000 -60 Level FlightAware
04:14PM 44.7630 -89.7540 280° West 40,000 -60 Level FlightAware
04:15PM 44.7880 -89.9570 280° West 40,000 -60 Level FlightAware
04:16PM 44.8030 -90.0800 280° West 40,000 -60 Level FlightAware
04:16PM 44.8200 -90.2150 280° West 40,000 -60 Level FlightAware
04:17PM 44.8330 -90.3270 279° West 40,000 -60 Level FlightAware
04:18PM 44.8500 -90.4730 279° West 40,000 -60 Level FlightAware
04:18PM 44.8620 -90.5730 280° West 40,000 -60 Level FlightAware
04:19PM 44.8790 -90.7200 279° West 40,000 -60 Level FlightAware
04:20PM 46.7160 -90.0000 15° North 44,200 -60 Climbing FlightAware
04:22PM 46.5250 -90.0000 180° South 44,200 -240 Level FlightAware
04:23PM 46.3350 -90.0000 180° South 44,200 -240 Level FlightAware
04:23PM 44.9680 -91.5140 218° Southwest 40,000 -240 Descending FlightAware
04:24PM 44.9820 -91.6460 279° West 40,000 -120 Level FlightAware
04:25PM 44.9930 -91.7530 278° West 40,000 -120 Level FlightAware
04:26PM 45.0120 -91.9290 279° West 40,000 -120 Level FlightAware
04:27PM 45.0260 -92.0620 279° West 40,000 -120 Level FlightAware
04:27PM 45.0370 -92.1780 278° West 40,000 -120 Level FlightAware
04:28PM 45.0530 -92.3320 278° West 40,000 -120 Level FlightAware
04:29PM 45.0700 -92.5290 277° West 39,100 -120 Descending FlightAware
04:30PM 45.0770 -92.6030 278° West 38,700 -60 Descending FlightAware
04:30PM 46.7160 -90.0000 47° Northeast 28,400 -60 Descending FlightAware
04:31PM 45.0990 -92.8510 232° Southwest 38,000 420 Climbing FlightAware
04:32PM 45.1110 -92.9870 277° West 38,000  Level FlightAware
04:32PM 45.1210 -93.1120 277° West 38,000  Level FlightAware
04:33PM 45.1320 -93.2360 277° West 38,000  Level FlightAware
04:34PM 45.1420 -93.3650 276° West 38,000  Level FlightAware
04:34PM 45.1510 -93.4820 276° West 38,000  Level FlightAware
04:35PM 45.1600 -93.6040 276° West 38,000  Level FlightAware
04:36PM 45.1680 -93.7140 276° West 38,000  Level FlightAware
04:37PM 45.1760 -93.8300 276° West 38,000  Level FlightAware
04:37PM 45.1850 -93.9470 276° West 38,000  Level FlightAware
04:38PM 45.1930 -94.0710 275° West 38,000  Level FlightAware
04:39PM 45.2090 -94.2100 279° West 38,000  Level FlightAware
04:39PM 45.2220 -94.3130 280° West 38,000  Level FlightAware
04:40PM 45.2380 -94.4330 281° West 38,000  Level FlightAware
04:41PM 45.2520 -94.5460 280° West 38,000  Level FlightAware
04:41PM 45.2670 -94.6710 280° West 38,000  Level FlightAware
04:42PM 45.2820 -94.7870 280° West 38,000  Level FlightAware
04:43PM 45.2970 -94.9090 280° West 38,000  Level FlightAware
04:44PM 45.3100 -95.0230 279° West 38,000  Level FlightAware
04:44PM 45.3260 -95.1510 280° West 38,000  Level FlightAware
04:45PM 45.3460 -95.3200 280° West 38,000  Level FlightAware
04:46PM 45.3620 -95.4570 279° West 38,000  Level FlightAware
04:47PM 45.3770 -95.5820 280° West 38,000  Level FlightAware
04:48PM 45.3900 -95.7020 279° West 38,000  Level FlightAware
04:48PM 45.4040 -95.8170 280° West 38,000  Level FlightAware
04:49PM 45.4160 -95.9300 279° West 38,000  Level FlightAware
04:50PM 45.4300 -96.0490 280° West 38,000  Level FlightAware
04:51PM 45.4530 -96.2610 279° West 38,000  Level FlightAware
04:52PM 45.4700 -96.4150 279° West 38,000  Level FlightAware
04:52PM 45.4858 -96.4956 279° West 433 498 38,000  Level Minneapolis Center
04:53PM 45.5053 -96.6636 279° West 432 497 38,000  Level Minneapolis Center
04:54PM 45.5261 -96.8653 278° West 431 496 38,000  Level Minneapolis Center
04:55PM 45.5439 -97.0333 279° West 430 495 38,000  Level Minneapolis Center
04:57PM 45.5608 -97.2011 278° West 430 495 38,000  Level Minneapolis Center
04:58PM 45.5783 -97.3631 279° West 421 484 38,000  Level Minneapolis Center
04:59PM 45.5942 -97.5294 278° West 423 487 38,000  Level Minneapolis Center
05:00PM 45.6133 -97.7236 278° West 416 479 38,000  Level Minneapolis Center
05:01PM 45.6294 -97.8886 278° West 420 483 38,000  Level Minneapolis Center
05:02PM 45.6467 -98.0519 279° West 418 481 38,000  Level Minneapolis Center
05:03PM 45.6628 -98.2236 278° West 424 488 38,000  Level Minneapolis Center
05:04PM 45.6772 -98.3897 277° West 424 488 38,000  Level Minneapolis Center
05:05PM 45.6925 -98.5564 278° West 424 488 38,000  Level Minneapolis Center
05:06PM 45.7111 -98.7553 278° West 423 487 38,000  Level Minneapolis Center
05:07PM 45.7250 -98.9231 277° West 424 488 38,000  Level Minneapolis Center
05:08PM 45.7392 -99.0886 277° West 424 488 38,000  Level Minneapolis Center
05:09PM 45.7525 -99.2539 277° West 421 484 38,000  Level Minneapolis Center
05:10PM 45.7669 -99.4219 277° West 424 488 38,000  Level Minneapolis Center
05:11PM 45.7811 -99.5892 277° West 425 489 38,000  Level Minneapolis Center
05:12PM 45.7967 -99.7911 276° West 427 491 38,000  Level Minneapolis Center
05:13PM 45.8100 -99.9606 277° West 429 494 38,000  Level Minneapolis Center
05:14PM 45.8222 -100.1281 276° West 428 493 38,000  Level Minneapolis Center
05:15PM 45.8356 -100.2981 276° West 430 495 38,000  Level Minneapolis Center
05:16PM 45.8475 -100.4694 276° West 433 498 38,000  Level Minneapolis Center
05:17PM 45.8619 -100.6761 276° West 435 501 38,000  Level Minneapolis Center
05:18PM 45.8750 -100.8472 276° West 434 499 38,000  Level Minneapolis Center
05:19PM 45.8861 -101.0189 275° West 434 499 38,000  Level Minneapolis Center
05:20PM 45.8975 -101.1914 275° West 435 501 38,000  Level Minneapolis Center
05:21PM 45.9100 -101.3672 276° West 441 507 38,000  Level Minneapolis Center
05:22PM 45.9214 -101.5400 275° West 437 503 38,000  Level Minneapolis Center
05:23PM 45.9347 -101.7483 275° West 438 504 38,000  Level Minneapolis Center
05:24PM 45.9453 -101.9200 275° West 435 501 38,000  Level Minneapolis Center
05:26PM 45.9564 -102.0933 275° West 437 503 38,000  Level Minneapolis Center
05:27PM 45.9664 -102.2686 275° West 439 505 38,000  Level Minneapolis Center
05:28PM 45.9764 -102.4417 275° West 439 505 38,000  Level Minneapolis Center
05:29PM 45.9858 -102.6167 275° West 439 505 38,000  Level Minneapolis Center
05:30PM 45.9961 -102.7933 275° West 436 502 38,000  Level Minneapolis Center
05:31PM 46.0064 -103.0025 274° West 437 503 38,000  Level Minneapolis Center
05:32PM 46.0147 -103.1794 274° West 442 509 38,000  Level Minneapolis Center
05:33PM 46.0239 -103.3533 274° West 439 505 38,000  Level Minneapolis Center
05:34PM 46.0289 -103.5272 272° West 439 505 38,000  Level Salt Lake Center
05:35PM 46.0375 -103.6997 274° West 436 502 38,000  Level Salt Lake Center
05:36PM 46.0450 -103.8750 274° West 437 503 38,000  Level Salt Lake Center
05:37PM 46.0519 -104.0511 273° West 440 506 38,000  Level Salt Lake Center
05:38PM 46.0592 -104.2303 273° West 446 513 38,000  Level Salt Lake Center
05:39PM 46.0653 -104.4078 273° West 446 513 38,000  Level Salt Lake Center
05:40PM 46.0728 -104.6094 273° West 446 513 38,000  Level Salt Lake Center
05:41PM 46.0794 -104.7819 273° West 449 517 38,000  Level Salt Lake Center
05:42PM 46.0853 -104.9797 273° West 446 513 38,000  Level Salt Lake Center
05:43PM 46.0906 -105.1489 273° West 444 511 38,000  Level Salt Lake Center
05:44PM 46.0950 -105.3486 272° West 446 513 38,000  Level Salt Lake Center
05:45PM 46.1006 -105.5194 273° West 447 514 38,000  Level Salt Lake Center
05:46PM 46.1058 -105.7194 272° West 448 516 38,000 180 Level Salt Lake Center
05:47PM 46.1114 -105.8903 273° West 447 514 38,400 420 Climbing Salt Lake Center
05:48PM 46.1161 -106.0925 272° West 451 519 38,900 480 Climbing Salt Lake Center
05:49PM 46.1222 -106.2650 273° West 452 520 39,400 480 Climbing Salt Lake Center
05:50PM 46.1256 -106.4397 272° West 454 522 39,900 240 Climbing Salt Lake Center
05:51PM 46.1311 -106.6458 272° West 458 527 40,000  Climbing Salt Lake Center
05:52PM 46.1344 -106.8192 272° West 457 526 40,000  Level Salt Lake Center
05:53PM 46.1378 -107.0253 271° West 458 527 40,000  Level Salt Lake Center
05:54PM 46.1408 -107.1978 272° West 455 524 40,000  Level Salt Lake Center
05:55PM 46.1428 -107.3922 271° West 441 507 40,000  Level Salt Lake Center
05:56PM 46.1444 -107.5608 271° West 440 506 40,000  Level Salt Lake Center
05:57PM 46.1461 -107.7561 271° West 439 505 40,000  Level Salt Lake Center
05:58PM 46.1475 -107.9247 271° West 440 506 40,000  Level Salt Lake Center
05:59PM 46.1489 -108.1219 271° West 442 509 40,000  Level Salt Lake Center
06:00PM 46.1503 -108.2894 271° West 439 505 40,000  Level Salt Lake Center
06:01PM 46.1511 -108.4600 270° West 446 513 40,000  Level Salt Lake Center
06:03PM 46.1514 -108.6656 270° West 460 529 40,000  Level Salt Lake Center
06:04PM 46.1514 -108.8364 270° West 446 513 40,000  Level Salt Lake Center
06:05PM 46.1508 -109.0361 270° West 448 516 40,000  Level Salt Lake Center
06:06PM 46.1503 -109.2078 270° West 449 517 40,000  Level Salt Lake Center
06:07PM 46.1503 -109.4103 270° West 454 522 40,000  Level Salt Lake Center
06:08PM 46.1486 -109.5886 269° West 464 534 40,000  Level Salt Lake Center
06:09PM 46.1475 -109.8031 270° West 480 552 40,000  Level Salt Lake Center
06:10PM 46.1431 -109.9839 268° West 475 547 40,000 -540 Level Salt Lake Center
06:11PM 46.1422 -110.1592 270° West 461 531 39,000 -1,020 Descending Salt Lake Center
06:12PM 46.1392 -110.3544 269° West 441 507 38,000 -540 Descending Salt Lake Center
06:13PM 46.1378 -110.5197 269° West 433 498 38,000  Level Salt Lake Center
06:14PM 46.1344 -110.7178 269° West 438 504 38,000  Level Salt Lake Center
06:15PM 46.1311 -110.8972 269° West 451 519 38,000  Level Salt Lake Center
06:16PM 46.1275 -111.0767 268° West 452 520 38,000  Level Salt Lake Center
06:17PM 46.1236 -111.2581 268° West 457 526 38,000  Level Salt Lake Center
06:18PM 46.1194 -111.4383 268° West 457 526 38,000  Level Salt Lake Center
06:19PM 46.1139 -111.6614 268° West 465 535 38,000  Level Salt Lake Center
06:20PM 46.1081 -111.8511 268° West 474 545 38,000  Level Salt Lake Center
06:21PM 46.1036 -112.0425 268° West 478 550 38,000  Level Salt Lake Center
06:22PM 46.0967 -112.2303 267° West 474 545 38,000  Level Salt Lake Center
06:23PM 46.0911 -112.4172 268° West 470 541 38,000  Level Salt Lake Center
06:24PM 46.0847 -112.6056 267° West 470 541 38,000  Level Salt Lake Center
06:25PM 46.0764 -112.8325 267° West 473 544 38,000  Level Salt Lake Center
06:26PM 46.0717 -113.0217 268° West 475 547 38,000  Level Salt Lake Center
06:27PM 46.0644 -113.2117 267° West 474 545 38,000  Level Salt Lake Center
06:28PM 46.0581 -113.4022 267° West 478 550 38,000  Level Salt Lake Center
06:29PM 46.0497 -113.5922 266° West 479 551 38,000  Level Salt Lake Center
06:30PM 46.0400 -113.8036 266° West 492 566 38,000  Level Salt Lake Center
06:31PM 46.0317 -113.9975 267° West 489 563 38,000  Level Salt Lake Center
06:32PM 46.0219 -114.1914 266° West 486 559 38,000  Level Salt Lake Center
06:33PM 46.0108 -114.4089 266° West 493 567 38,000  Level Salt Lake Center
06:34PM 46.0031 -114.6033 267° West 505 581 38,000  Level Salt Lake Center
06:35PM 45.9914 -114.8208 266° West 495 570 38,000  Level Salt Lake Center
06:36PM 45.9808 -115.0064 265° West 489 563 38,000  Level Salt Lake Center
06:38PM 45.9694 -115.2269 266° West 496 571 38,000  Level Salt Lake Center
06:39PM 45.9597 -115.4128 266° West 492 566 38,000  Level Salt Lake Center
06:40PM 45.9458 -115.6056 264° West 482 555 38,000  Level Seattle Center
06:46PM 45.8500 -116.8390 264° West 38,000  Level FlightAware
06:47PM 45.8390 -116.9920 264° West 38,000  Level FlightAware
06:47PM 45.8270 -117.1430 264° West 38,000  Level FlightAware
06:50PM 45.7930 -117.5620 264° West 38,000  Level FlightAware
06:50PM 45.7860 -117.6380 263° West 38,000  Level FlightAware
06:51PM 45.7720 -117.8140 264° West 38,000  Level FlightAware
06:52PM 45.7580 -117.9750 263° West 38,000  Level FlightAware
06:52PM 45.7440 -118.1280 263° West 38,000  Level FlightAware
06:54PM 45.7180 -118.4230 263° West 38,000  Level FlightAware
06:55PM 45.7070 -118.5450 263° West 38,000  Level FlightAware
06:55PM 45.7039 -118.5833 263° West 491 565 38,000  Level Seattle Center
06:56PM 45.6856 -118.7775 262° West 495 570 38,000  Level Seattle Center
06:57PM 45.6675 -118.9711 262° West 493 567 38,000  Level Seattle Center
06:58PM 45.6483 -119.1639 262° West 493 567 38,000  Level Seattle Center
06:59PM 45.6294 -119.3558 262° West 491 565 38,000  Level Seattle Center
07:00PM 45.6094 -119.5433 261° West 483 556 38,000  Level Seattle Center
07:01PM 45.5894 -119.7339 262° West 488 562 38,000 -300 Level Seattle Center
07:02PM 45.5658 -119.9631 262° West 491 565 37,500 -1,140 Descending Seattle Center
07:03PM 45.5453 -120.1511 261° West 486 559 35,700 -1,920 Descending Seattle Center
07:04PM 45.5250 -120.3322 261° West 472 543 33,700 -1,980 Descending Seattle Center
07:05PM 45.5153 -120.5086 266° West 455 524 31,700 -1,980 Descending Seattle Center
07:06PM 45.5192 -120.6758 272° West 429 494 29,700 -2,220 Descending Seattle Center
07:07PM 45.5217 -120.8281 271° West 399 459 27,300 -2,340 Descending Seattle Center
07:08PM 45.5233 -120.9689 271° West 367 422 25,000 -2,400 Descending Seattle Center
07:09PM 45.5253 -121.1133 271° West 364 419 22,500 -2,640 Descending Seattle Center
07:11PM 45.5167 -121.3420 270° West  Level FlightAware Approximate
07:11PM 45.5306 -121.4219 270° West 340 391 17,100  Level Seattle Center
07:12PM 45.5272 -121.5506 268° West 339 390 14,600 -2,580 Descending Seattle Center
07:13PM 45.5306 -121.6881 272° West 327 376 11,900 -2,640 Descending Seattle Center
07:14PM 45.5336 -121.8072 272° West 289 333 9,300 -2,220 Descending Seattle Center
07:15PM 45.5386 -121.9136 274° West 264 304 7,500 -1,500 Descending Seattle Center
07:16PM 45.5400 -122.0150 271° West 258 297 6,300 -1,020 Descending Seattle Center
07:17PM 45.5328 -122.1167 264° West 252 290 5,500 -540 Descending Seattle Center
07:18PM 45.5278 -122.2144 266° West 261 300 5,300 -840 Descending Seattle Center
07:19PM 45.5161 -122.3211 261° West 248 285 3,800 -1,320 Descending Seattle Center
07:20PM 45.5178 -122.4006 272° West 234 269 2,700 -1,200 Descending Seattle Center
07:21PM 45.5519 -122.4856 300° West 217 250 1,400 -1,140 Descending Seattle Center
07:22PM 45.5714 -122.5392 297° West 136 157 500 -540 Descending Seattle Center
07:23PM 45.5928 -122.5900 301° West 186 214 300 -240 Descending Seattle Center